sensor_id;sensor_type;location;lat;lon;timestamp;P1;durP1;ratioP1;P2;durP2;ratioP2
58990;SDS011;44781;53.444;14.476;2023-12-04T00:01:58;17.60;;;9.80;;
58990;SDS011;44781;53.444;14.476;2023-12-04T00:04:25;23.70;;;12.90;;
58990;SDS011;44781;53.444;14.476;2023-12-04T00:06:52;23.60;;;13.20;;
58990;SDS011;44781;53.444;14.476;2023-12-04T00:09:19;22.20;;;12.90;;
58990;SDS011;44781;53.444;14.476;2023-12-04T00:11:46;21.10;;;11.60;;
58990;SDS011;44781;53.444;14.476;2023-12-04T00:14:13;18.20;;;10.30;;
58990;SDS011;44781;53.444;14.476;2023-12-04T00:16:40;19.50;;;10.80;;
58990;SDS011;44781;53.444;14.476;2023-12-04T00:19:07;19.70;;;10.60;;
58990;SDS011;44781;53.444;14.476;2023-12-04T00:21:35;19.70;;;10.20;;
58990;SDS011;44781;53.444;14.476;2023-12-04T00:24:02;19.10;;;10.30;;
58990;SDS011;44781;53.444;14.476;2023-12-04T00:26:30;20.30;;;10.80;;
58990;SDS011;44781;53.444;14.476;2023-12-04T00:28:57;18.30;;;10.20;;
58990;SDS011;44781;53.444;14.476;2023-12-04T00:31:24;16.60;;;9.50;;
58990;SDS011;44781;53.444;14.476;2023-12-04T00:33:52;19.40;;;10.70;;
58990;SDS011;44781;53.444;14.476;2023-12-04T00:36:21;20.40;;;10.90;;
58990;SDS011;44781;53.444;14.476;2023-12-04T00:38:48;18.80;;;10.00;;
58990;SDS011;44781;53.444;14.476;2023-12-04T00:41:17;19.70;;;10.80;;
58990;SDS011;44781;53.444;14.476;2023-12-04T00:43:44;18.10;;;9.80;;
58990;SDS011;44781;53.444;14.476;2023-12-04T00:46:11;18.80;;;10.50;;
58990;SDS011;44781;53.444;14.476;2023-12-04T00:48:38;21.50;;;10.90;;
58990;SDS011;44781;53.444;14.476;2023-12-04T00:51:05;18.00;;;10.60;;
58990;SDS011;44781;53.444;14.476;2023-12-04T00:53:34;18.60;;;10.90;;
58990;SDS011;44781;53.444;14.476;2023-12-04T00:56:01;18.10;;;9.70;;
58990;SDS011;44781;53.444;14.476;2023-12-04T00:58:29;20.70;;;11.30;;
58990;SDS011;44781;53.444;14.476;2023-12-04T01:01:25;17.90;;;10.00;;
58990;SDS011;44781;53.444;14.476;2023-12-04T01:03:52;18.30;;;10.50;;
58990;SDS011;44781;53.444;14.476;2023-12-04T01:06:20;20.10;;;11.00;;
58990;SDS011;44781;53.444;14.476;2023-12-04T01:08:49;17.70;;;9.50;;
58990;SDS011;44781;53.444;14.476;2023-12-04T01:11:17;17.40;;;9.90;;
58990;SDS011;44781;53.444;14.476;2023-12-04T01:13:46;17.10;;;9.50;;
58990;SDS011;44781;53.444;14.476;2023-12-04T01:16:13;19.20;;;10.70;;
58990;SDS011;44781;53.444;14.476;2023-12-04T01:18:41;16.50;;;9.60;;
58990;SDS011;44781;53.444;14.476;2023-12-04T01:21:08;19.90;;;10.50;;
58990;SDS011;44781;53.444;14.476;2023-12-04T01:23:36;17.60;;;10.20;;
58990;SDS011;44781;53.444;14.476;2023-12-04T01:26:04;15.80;;;9.20;;
58990;SDS011;44781;53.444;14.476;2023-12-04T01:28:31;19.20;;;11.30;;
58990;SDS011;44781;53.444;14.476;2023-12-04T01:30:58;19.00;;;11.00;;
58990;SDS011;44781;53.444;14.476;2023-12-04T01:33:25;20.00;;;11.70;;
58990;SDS011;44781;53.444;14.476;2023-12-04T01:35:52;17.20;;;10.00;;
58990;SDS011;44781;53.444;14.476;2023-12-04T01:38:19;19.20;;;10.40;;
58990;SDS011;44781;53.444;14.476;2023-12-04T01:40:46;19.40;;;11.50;;
58990;SDS011;44781;53.444;14.476;2023-12-04T01:43:13;20.10;;;11.00;;
58990;SDS011;44781;53.444;14.476;2023-12-04T01:45:41;18.70;;;10.30;;
58990;SDS011;44781;53.444;14.476;2023-12-04T01:48:08;19.90;;;9.60;;
58990;SDS011;44781;53.444;14.476;2023-12-04T01:50:36;21.20;;;10.70;;
58990;SDS011;44781;53.444;14.476;2023-12-04T01:53:07;17.40;;;9.60;;
58990;SDS011;44781;53.444;14.476;2023-12-04T01:55:34;18.40;;;10.50;;
58990;SDS011;44781;53.444;14.476;2023-12-04T01:58:03;18.70;;;10.10;;
58990;SDS011;44781;53.444;14.476;2023-12-04T02:00:31;20.40;;;12.50;;
58990;SDS011;44781;53.444;14.476;2023-12-04T02:02:59;18.50;;;10.40;;
58990;SDS011;44781;53.444;14.476;2023-12-04T02:05:26;16.90;;;10.50;;
58990;SDS011;44781;53.444;14.476;2023-12-04T02:07:56;19.20;;;10.90;;
58990;SDS011;44781;53.444;14.476;2023-12-04T02:10:23;21.80;;;11.90;;
58990;SDS011;44781;53.444;14.476;2023-12-04T02:12:51;19.60;;;11.30;;
58990;SDS011;44781;53.444;14.476;2023-12-04T02:15:19;20.60;;;10.90;;
58990;SDS011;44781;53.444;14.476;2023-12-04T02:17:46;21.40;;;11.10;;
58990;SDS011;44781;53.444;14.476;2023-12-04T02:20:13;19.50;;;10.40;;
58990;SDS011;44781;53.444;14.476;2023-12-04T02:22:41;20.50;;;10.10;;
58990;SDS011;44781;53.444;14.476;2023-12-04T02:25:08;18.70;;;10.30;;
58990;SDS011;44781;53.444;14.476;2023-12-04T02:27:49;21.80;;;11.10;;
58990;SDS011;44781;53.444;14.476;2023-12-04T02:30:20;20.90;;;10.90;;
58990;SDS011;44781;53.444;14.476;2023-12-04T02:32:49;21.40;;;11.80;;
58990;SDS011;44781;53.444;14.476;2023-12-04T02:35:22;22.00;;;11.70;;
58990;SDS011;44781;53.444;14.476;2023-12-04T02:37:51;21.50;;;11.70;;
58990;SDS011;44781;53.444;14.476;2023-12-04T02:40:20;20.80;;;10.80;;
58990;SDS011;44781;53.444;14.476;2023-12-04T02:42:47;20.40;;;11.00;;
58990;SDS011;44781;53.444;14.476;2023-12-04T02:45:14;19.70;;;11.70;;
58990;SDS011;44781;53.444;14.476;2023-12-04T02:47:41;24.20;;;12.20;;
58990;SDS011;44781;53.444;14.476;2023-12-04T02:50:08;21.90;;;11.80;;
58990;SDS011;44781;53.444;14.476;2023-12-04T02:52:35;22.90;;;12.00;;
58990;SDS011;44781;53.444;14.476;2023-12-04T02:55:02;22.60;;;13.30;;
58990;SDS011;44781;53.444;14.476;2023-12-04T02:57:29;24.60;;;12.50;;
58990;SDS011;44781;53.444;14.476;2023-12-04T02:59:56;21.00;;;11.90;;
58990;SDS011;44781;53.444;14.476;2023-12-04T03:02:23;21.60;;;11.40;;
58990;SDS011;44781;53.444;14.476;2023-12-04T03:04:50;18.10;;;10.50;;
58990;SDS011;44781;53.444;14.476;2023-12-04T03:07:17;22.00;;;12.30;;
58990;SDS011;44781;53.444;14.476;2023-12-04T03:09:46;18.80;;;11.60;;
58990;SDS011;44781;53.444;14.476;2023-12-04T03:12:13;19.30;;;12.20;;
58990;SDS011;44781;53.444;14.476;2023-12-04T03:14:40;22.40;;;11.80;;
58990;SDS011;44781;53.444;14.476;2023-12-04T03:17:07;23.10;;;13.10;;
58990;SDS011;44781;53.444;14.476;2023-12-04T03:19:34;23.90;;;13.70;;
58990;SDS011;44781;53.444;14.476;2023-12-04T03:22:02;22.50;;;12.00;;
58990;SDS011;44781;53.444;14.476;2023-12-04T03:24:29;26.00;;;13.70;;
58990;SDS011;44781;53.444;14.476;2023-12-04T03:26:56;25.70;;;13.60;;
58990;SDS011;44781;53.444;14.476;2023-12-04T03:29:23;22.20;;;12.80;;
58990;SDS011;44781;53.444;14.476;2023-12-04T03:31:50;21.90;;;13.00;;
58990;SDS011;44781;53.444;14.476;2023-12-04T03:34:17;21.10;;;12.70;;
58990;SDS011;44781;53.444;14.476;2023-12-04T03:36:44;22.80;;;12.50;;
58990;SDS011;44781;53.444;14.476;2023-12-04T03:39:11;22.80;;;12.80;;
58990;SDS011;44781;53.444;14.476;2023-12-04T03:41:38;23.30;;;12.50;;
58990;SDS011;44781;53.444;14.476;2023-12-04T03:44:05;22.60;;;12.50;;
58990;SDS011;44781;53.444;14.476;2023-12-04T03:46:32;23.20;;;12.80;;
58990;SDS011;44781;53.444;14.476;2023-12-04T03:48:59;22.80;;;13.20;;
58990;SDS011;44781;53.444;14.476;2023-12-04T03:51:26;21.90;;;13.30;;
58990;SDS011;44781;53.444;14.476;2023-12-04T03:53:53;22.00;;;12.00;;
58990;SDS011;44781;53.444;14.476;2023-12-04T03:56:20;23.80;;;13.00;;
58990;SDS011;44781;53.444;14.476;2023-12-04T03:58:47;20.40;;;12.20;;
58990;SDS011;44781;53.444;14.476;2023-12-04T04:01:14;23.40;;;13.10;;
58990;SDS011;44781;53.444;14.476;2023-12-04T04:03:41;24.50;;;13.10;;
58990;SDS011;44781;53.444;14.476;2023-12-04T04:06:09;24.20;;;13.70;;
58990;SDS011;44781;53.444;14.476;2023-12-04T04:08:36;23.50;;;13.90;;
58990;SDS011;44781;53.444;14.476;2023-12-04T04:11:03;24.80;;;14.20;;
58990;SDS011;44781;53.444;14.476;2023-12-04T04:13:30;24.90;;;13.90;;
58990;SDS011;44781;53.444;14.476;2023-12-04T04:15:57;21.70;;;13.80;;
58990;SDS011;44781;53.444;14.476;2023-12-04T04:18:24;24.70;;;13.40;;
58990;SDS011;44781;53.444;14.476;2023-12-04T04:20:51;24.30;;;13.30;;
58990;SDS011;44781;53.444;14.476;2023-12-04T04:23:18;27.90;;;14.80;;
58990;SDS011;44781;53.444;14.476;2023-12-04T04:25:46;26.30;;;15.10;;
58990;SDS011;44781;53.444;14.476;2023-12-04T04:28:13;25.00;;;14.90;;
58990;SDS011;44781;53.444;14.476;2023-12-04T04:30:40;24.70;;;14.90;;
58990;SDS011;44781;53.444;14.476;2023-12-04T04:33:07;25.20;;;14.70;;
58990;SDS011;44781;53.444;14.476;2023-12-04T04:35:35;25.50;;;14.50;;
58990;SDS011;44781;53.444;14.476;2023-12-04T04:38:02;27.10;;;14.70;;
58990;SDS011;44781;53.444;14.476;2023-12-04T04:40:31;29.00;;;16.80;;
58990;SDS011;44781;53.444;14.476;2023-12-04T04:42:58;27.50;;;14.90;;
58990;SDS011;44781;53.444;14.476;2023-12-04T04:45:27;27.30;;;15.60;;
58990;SDS011;44781;53.444;14.476;2023-12-04T04:47:54;27.50;;;15.60;;
58990;SDS011;44781;53.444;14.476;2023-12-04T04:50:21;26.00;;;15.10;;
58990;SDS011;44781;53.444;14.476;2023-12-04T04:52:48;28.80;;;16.40;;
58990;SDS011;44781;53.444;14.476;2023-12-04T04:55:15;27.10;;;16.20;;
58990;SDS011;44781;53.444;14.476;2023-12-04T04:57:42;22.90;;;13.90;;
58990;SDS011;44781;53.444;14.476;2023-12-04T05:00:09;23.90;;;13.10;;
58990;SDS011;44781;53.444;14.476;2023-12-04T05:02:36;23.70;;;13.10;;
58990;SDS011;44781;53.444;14.476;2023-12-04T05:05:03;24.00;;;15.60;;
58990;SDS011;44781;53.444;14.476;2023-12-04T05:07:31;31.20;;;18.10;;
58990;SDS011;44781;53.444;14.476;2023-12-04T05:09:58;29.50;;;17.00;;
58990;SDS011;44781;53.444;14.476;2023-12-04T05:12:25;25.70;;;15.30;;
58990;SDS011;44781;53.444;14.476;2023-12-04T05:14:52;24.30;;;13.80;;
58990;SDS011;44781;53.444;14.476;2023-12-04T05:17:19;22.90;;;13.40;;
58990;SDS011;44781;53.444;14.476;2023-12-04T05:19:46;21.90;;;12.70;;
58990;SDS011;44781;53.444;14.476;2023-12-04T05:22:13;28.60;;;16.30;;
58990;SDS011;44781;53.444;14.476;2023-12-04T05:24:40;24.10;;;14.10;;
58990;SDS011;44781;53.444;14.476;2023-12-04T05:27:07;25.50;;;15.70;;
58990;SDS011;44781;53.444;14.476;2023-12-04T05:29:34;23.60;;;14.90;;
58990;SDS011;44781;53.444;14.476;2023-12-04T05:32:01;27.00;;;15.00;;
58990;SDS011;44781;53.444;14.476;2023-12-04T05:34:28;25.60;;;15.50;;
58990;SDS011;44781;53.444;14.476;2023-12-04T05:36:56;27.70;;;15.60;;
58990;SDS011;44781;53.444;14.476;2023-12-04T05:39:23;29.10;;;15.80;;
58990;SDS011;44781;53.444;14.476;2023-12-04T05:41:50;27.80;;;16.40;;
58990;SDS011;44781;53.444;14.476;2023-12-04T05:44:17;26.60;;;15.80;;
58990;SDS011;44781;53.444;14.476;2023-12-04T05:46:44;24.50;;;13.90;;
58990;SDS011;44781;53.444;14.476;2023-12-04T05:49:11;22.70;;;13.70;;
58990;SDS011;44781;53.444;14.476;2023-12-04T05:51:38;24.20;;;12.20;;
58990;SDS011;44781;53.444;14.476;2023-12-04T05:54:05;22.80;;;13.90;;
58990;SDS011;44781;53.444;14.476;2023-12-04T05:56:33;25.40;;;13.90;;
58990;SDS011;44781;53.444;14.476;2023-12-04T05:59:02;21.80;;;13.00;;
58990;SDS011;44781;53.444;14.476;2023-12-04T06:01:29;23.00;;;13.00;;
58990;SDS011;44781;53.444;14.476;2023-12-04T06:03:56;23.80;;;14.40;;
58990;SDS011;44781;53.444;14.476;2023-12-04T06:06:23;27.00;;;14.90;;
58990;SDS011;44781;53.444;14.476;2023-12-04T06:08:50;23.40;;;14.30;;
58990;SDS011;44781;53.444;14.476;2023-12-04T06:11:17;27.00;;;15.50;;
58990;SDS011;44781;53.444;14.476;2023-12-04T06:13:44;25.70;;;14.50;;
58990;SDS011;44781;53.444;14.476;2023-12-04T06:16:11;25.70;;;15.30;;
58990;SDS011;44781;53.444;14.476;2023-12-04T06:18:38;28.50;;;16.20;;
58990;SDS011;44781;53.444;14.476;2023-12-04T06:21:05;25.50;;;15.00;;
58990;SDS011;44781;53.444;14.476;2023-12-04T06:23:33;23.90;;;13.90;;
58990;SDS011;44781;53.444;14.476;2023-12-04T06:26:00;25.60;;;14.00;;
58990;SDS011;44781;53.444;14.476;2023-12-04T06:28:27;24.90;;;13.60;;
58990;SDS011;44781;53.444;14.476;2023-12-04T06:30:54;25.10;;;15.00;;
58990;SDS011;44781;53.444;14.476;2023-12-04T06:33:22;29.50;;;16.10;;
58990;SDS011;44781;53.444;14.476;2023-12-04T06:35:49;27.10;;;16.00;;
58990;SDS011;44781;53.444;14.476;2023-12-04T06:38:16;26.80;;;15.00;;
58990;SDS011;44781;53.444;14.476;2023-12-04T06:40:46;26.30;;;15.70;;
58990;SDS011;44781;53.444;14.476;2023-12-04T06:43:13;28.90;;;15.20;;
58990;SDS011;44781;53.444;14.476;2023-12-04T06:45:42;27.10;;;15.80;;
58990;SDS011;44781;53.444;14.476;2023-12-04T06:48:10;30.80;;;15.70;;
58990;SDS011;44781;53.444;14.476;2023-12-04T06:50:40;25.10;;;15.50;;
58990;SDS011;44781;53.444;14.476;2023-12-04T06:53:07;29.30;;;15.50;;
58990;SDS011;44781;53.444;14.476;2023-12-04T06:55:34;26.90;;;14.90;;
58990;SDS011;44781;53.444;14.476;2023-12-04T06:58:01;26.50;;;15.40;;
58990;SDS011;44781;53.444;14.476;2023-12-04T07:00:28;29.40;;;16.30;;
58990;SDS011;44781;53.444;14.476;2023-12-04T07:02:55;27.60;;;15.40;;
58990;SDS011;44781;53.444;14.476;2023-12-04T07:05:23;33.60;;;17.60;;
58990;SDS011;44781;53.444;14.476;2023-12-04T07:07:50;33.60;;;18.50;;
58990;SDS011;44781;53.444;14.476;2023-12-04T07:10:17;33.30;;;18.40;;
58990;SDS011;44781;53.444;14.476;2023-12-04T07:12:44;30.20;;;17.00;;
58990;SDS011;44781;53.444;14.476;2023-12-04T07:15:12;27.80;;;14.90;;
58990;SDS011;44781;53.444;14.476;2023-12-04T07:17:39;30.30;;;16.60;;
58990;SDS011;44781;53.444;14.476;2023-12-04T07:20:06;30.90;;;16.20;;
58990;SDS011;44781;53.444;14.476;2023-12-04T07:22:38;30.80;;;16.00;;
58990;SDS011;44781;53.444;14.476;2023-12-04T07:25:06;31.80;;;17.50;;
58990;SDS011;44781;53.444;14.476;2023-12-04T07:27:33;34.90;;;17.70;;
58990;SDS011;44781;53.444;14.476;2023-12-04T07:30:01;32.30;;;17.60;;
58990;SDS011;44781;53.444;14.476;2023-12-04T07:32:29;33.20;;;17.90;;
58990;SDS011;44781;53.444;14.476;2023-12-04T07:35:18;33.20;;;16.90;;
58990;SDS011;44781;53.444;14.476;2023-12-04T07:37:45;29.30;;;15.40;;
58990;SDS011;44781;53.444;14.476;2023-12-04T07:40:12;29.50;;;16.30;;
58990;SDS011;44781;53.444;14.476;2023-12-04T07:42:41;28.00;;;16.90;;
58990;SDS011;44781;53.444;14.476;2023-12-04T07:45:09;28.20;;;16.30;;
58990;SDS011;44781;53.444;14.476;2023-12-04T07:47:42;27.20;;;15.10;;
58990;SDS011;44781;53.444;14.476;2023-12-04T07:50:12;31.20;;;16.60;;
58990;SDS011;44781;53.444;14.476;2023-12-04T07:52:39;29.60;;;16.50;;
58990;SDS011;44781;53.444;14.476;2023-12-04T07:55:08;29.30;;;17.40;;
58990;SDS011;44781;53.444;14.476;2023-12-04T07:57:36;30.90;;;18.40;;
58990;SDS011;44781;53.444;14.476;2023-12-04T08:00:03;35.30;;;18.50;;
58990;SDS011;44781;53.444;14.476;2023-12-04T08:02:31;34.70;;;19.00;;
58990;SDS011;44781;53.444;14.476;2023-12-04T08:04:58;35.30;;;19.20;;
58990;SDS011;44781;53.444;14.476;2023-12-04T08:07:25;36.70;;;19.30;;
58990;SDS011;44781;53.444;14.476;2023-12-04T08:09:52;34.60;;;19.50;;
58990;SDS011;44781;53.444;14.476;2023-12-04T08:12:20;38.70;;;23.40;;
58990;SDS011;44781;53.444;14.476;2023-12-04T08:14:47;39.10;;;23.00;;
58990;SDS011;44781;53.444;14.476;2023-12-04T08:17:14;38.10;;;19.90;;
58990;SDS011;44781;53.444;14.476;2023-12-04T08:19:42;32.20;;;18.80;;
58990;SDS011;44781;53.444;14.476;2023-12-04T08:22:09;34.20;;;22.10;;
58990;SDS011;44781;53.444;14.476;2023-12-04T08:24:35;39.30;;;24.80;;
58990;SDS011;44781;53.444;14.476;2023-12-04T08:27:02;38.90;;;24.00;;
58990;SDS011;44781;53.444;14.476;2023-12-04T08:29:30;44.10;;;24.20;;
58990;SDS011;44781;53.444;14.476;2023-12-04T08:31:57;43.40;;;25.00;;
58990;SDS011;44781;53.444;14.476;2023-12-04T08:34:24;45.10;;;26.00;;
58990;SDS011;44781;53.444;14.476;2023-12-04T08:36:51;43.90;;;24.50;;
58990;SDS011;44781;53.444;14.476;2023-12-04T08:39:18;37.70;;;22.80;;
58990;SDS011;44781;53.444;14.476;2023-12-04T08:41:45;36.30;;;20.60;;
58990;SDS011;44781;53.444;14.476;2023-12-04T08:44:14;34.40;;;18.70;;
58990;SDS011;44781;53.444;14.476;2023-12-04T08:46:41;34.70;;;18.40;;
58990;SDS011;44781;53.444;14.476;2023-12-04T08:49:10;35.00;;;20.00;;
58990;SDS011;44781;53.444;14.476;2023-12-04T08:51:37;29.90;;;18.40;;
58990;SDS011;44781;53.444;14.476;2023-12-04T08:54:04;32.00;;;17.50;;
58990;SDS011;44781;53.444;14.476;2023-12-04T08:56:31;32.30;;;18.00;;
58990;SDS011;44781;53.444;14.476;2023-12-04T08:58:59;31.00;;;17.90;;
58990;SDS011;44781;53.444;14.476;2023-12-04T09:01:30;33.70;;;19.30;;
58990;SDS011;44781;53.444;14.476;2023-12-04T09:03:57;32.70;;;19.10;;
58990;SDS011;44781;53.444;14.476;2023-12-04T09:06:24;32.00;;;19.10;;
58990;SDS011;44781;53.444;14.476;2023-12-04T09:08:52;34.20;;;20.00;;
58990;SDS011;44781;53.444;14.476;2023-12-04T09:11:19;42.20;;;25.00;;
58990;SDS011;44781;53.444;14.476;2023-12-04T09:13:46;41.70;;;22.50;;
58990;SDS011;44781;53.444;14.476;2023-12-04T09:16:13;41.20;;;23.00;;
58990;SDS011;44781;53.444;14.476;2023-12-04T09:18:40;46.00;;;24.90;;
58990;SDS011;44781;53.444;14.476;2023-12-04T09:21:07;44.00;;;27.80;;
58990;SDS011;44781;53.444;14.476;2023-12-04T09:23:36;42.70;;;26.40;;
58990;SDS011;44781;53.444;14.476;2023-12-04T09:26:03;47.40;;;26.40;;
58990;SDS011;44781;53.444;14.476;2023-12-04T09:28:30;42.60;;;25.40;;
58990;SDS011;44781;53.444;14.476;2023-12-04T09:30:57;48.80;;;27.00;;
58990;SDS011;44781;53.444;14.476;2023-12-04T09:33:24;47.90;;;25.40;;
58990;SDS011;44781;53.444;14.476;2023-12-04T09:35:51;46.60;;;26.00;;
58990;SDS011;44781;53.444;14.476;2023-12-04T09:38:18;44.90;;;25.60;;
58990;SDS011;44781;53.444;14.476;2023-12-04T09:40:45;43.40;;;26.10;;
58990;SDS011;44781;53.444;14.476;2023-12-04T09:43:12;44.20;;;22.60;;
58990;SDS011;44781;53.444;14.476;2023-12-04T09:45:40;37.10;;;22.40;;
58990;SDS011;44781;53.444;14.476;2023-12-04T09:48:08;37.70;;;21.50;;
58990;SDS011;44781;53.444;14.476;2023-12-04T09:50:36;35.80;;;21.70;;
58990;SDS011;44781;53.444;14.476;2023-12-04T09:53:03;38.90;;;22.00;;
58990;SDS011;44781;53.444;14.476;2023-12-04T09:55:30;41.90;;;22.80;;
58990;SDS011;44781;53.444;14.476;2023-12-04T09:57:57;34.40;;;20.30;;
58990;SDS011;44781;53.444;14.476;2023-12-04T10:00:25;35.60;;;20.50;;
58990;SDS011;44781;53.444;14.476;2023-12-04T10:02:53;33.90;;;20.60;;
58990;SDS011;44781;53.444;14.476;2023-12-04T10:05:21;40.90;;;24.70;;
58990;SDS011;44781;53.444;14.476;2023-12-04T10:07:50;39.90;;;21.20;;
58990;SDS011;44781;53.444;14.476;2023-12-04T10:10:17;34.10;;;19.80;;
58990;SDS011;44781;53.444;14.476;2023-12-04T10:12:44;32.00;;;20.40;;
58990;SDS011;44781;53.444;14.476;2023-12-04T10:15:12;32.10;;;20.80;;
58990;SDS011;44781;53.444;14.476;2023-12-04T10:17:40;34.70;;;22.00;;
58990;SDS011;44781;53.444;14.476;2023-12-04T10:20:10;35.80;;;21.00;;
58990;SDS011;44781;53.444;14.476;2023-12-04T10:22:39;41.00;;;25.00;;
58990;SDS011;44781;53.444;14.476;2023-12-04T10:25:17;41.10;;;23.60;;
58990;SDS011;44781;53.444;14.476;2023-12-04T10:27:46;38.00;;;23.00;;
58990;SDS011;44781;53.444;14.476;2023-12-04T10:30:27;38.60;;;22.80;;
58990;SDS011;44781;53.444;14.476;2023-12-04T10:32:57;38.80;;;24.10;;
58990;SDS011;44781;53.444;14.476;2023-12-04T10:35:28;39.40;;;22.30;;
58990;SDS011;44781;53.444;14.476;2023-12-04T10:37:59;36.70;;;22.60;;
58990;SDS011;44781;53.444;14.476;2023-12-04T10:40:27;40.60;;;23.50;;
58990;SDS011;44781;53.444;14.476;2023-12-04T10:45:41;39.90;;;24.10;;
58990;SDS011;44781;53.444;14.476;2023-12-04T10:48:09;42.10;;;22.50;;
58990;SDS011;44781;53.444;14.476;2023-12-04T10:50:37;38.20;;;22.40;;
58990;SDS011;44781;53.444;14.476;2023-12-04T10:53:10;43.20;;;24.30;;
58990;SDS011;44781;53.444;14.476;2023-12-04T10:55:39;42.70;;;24.20;;
58990;SDS011;44781;53.444;14.476;2023-12-04T10:58:10;44.40;;;23.70;;
58990;SDS011;44781;53.444;14.476;2023-12-04T11:00:43;41.90;;;23.40;;
58990;SDS011;44781;53.444;14.476;2023-12-04T11:03:18;40.10;;;22.60;;
58990;SDS011;44781;53.444;14.476;2023-12-04T11:05:53;45.80;;;23.50;;
58990;SDS011;44781;53.444;14.476;2023-12-04T11:10:56;42.40;;;24.40;;
58990;SDS011;44781;53.444;14.476;2023-12-04T11:13:35;45.50;;;25.80;;
58990;SDS011;44781;53.444;14.476;2023-12-04T11:19:59;41.50;;;25.70;;
58990;SDS011;44781;53.444;14.476;2023-12-04T11:22:07;44.90;;;24.90;;
58990;SDS011;44781;53.444;14.476;2023-12-04T11:24:36;43.40;;;24.40;;
58990;SDS011;44781;53.444;14.476;2023-12-04T11:27:03;40.80;;;23.30;;
58990;SDS011;44781;53.444;14.476;2023-12-04T11:29:31;38.20;;;22.30;;
58990;SDS011;44781;53.444;14.476;2023-12-04T11:32:00;37.70;;;22.20;;
58990;SDS011;44781;53.444;14.476;2023-12-04T11:34:27;41.10;;;24.10;;
58990;SDS011;44781;53.444;14.476;2023-12-04T11:36:54;41.40;;;23.80;;
58990;SDS011;44781;53.444;14.476;2023-12-04T11:39:22;38.10;;;22.40;;
58990;SDS011;44781;53.444;14.476;2023-12-04T11:41:52;38.20;;;21.70;;
58990;SDS011;44781;53.444;14.476;2023-12-04T11:44:22;40.40;;;24.30;;
58990;SDS011;44781;53.444;14.476;2023-12-04T11:46:56;40.30;;;22.70;;
58990;SDS011;44781;53.444;14.476;2023-12-04T11:49:29;41.90;;;23.20;;
58990;SDS011;44781;53.444;14.476;2023-12-04T11:51:58;38.40;;;22.80;;
58990;SDS011;44781;53.444;14.476;2023-12-04T11:54:26;38.20;;;22.90;;
58990;SDS011;44781;53.444;14.476;2023-12-04T11:56:58;44.30;;;25.90;;
58990;SDS011;44781;53.444;14.476;2023-12-04T11:59:48;41.20;;;23.60;;
58990;SDS011;44781;53.444;14.476;2023-12-04T12:02:15;38.40;;;23.30;;
58990;SDS011;44781;53.444;14.476;2023-12-04T12:04:43;43.10;;;26.20;;
58990;SDS011;44781;53.444;14.476;2023-12-04T12:07:14;51.90;;;29.30;;
58990;SDS011;44781;53.444;14.476;2023-12-04T12:09:41;42.50;;;25.40;;
58990;SDS011;44781;53.444;14.476;2023-12-04T12:12:08;45.10;;;25.30;;
58990;SDS011;44781;53.444;14.476;2023-12-04T12:14:35;43.20;;;24.90;;
58990;SDS011;44781;53.444;14.476;2023-12-04T12:17:03;43.20;;;26.00;;
58990;SDS011;44781;53.444;14.476;2023-12-04T12:19:30;42.70;;;23.70;;
58990;SDS011;44781;53.444;14.476;2023-12-04T12:21:57;45.50;;;27.10;;
58990;SDS011;44781;53.444;14.476;2023-12-04T12:24:24;50.10;;;30.90;;
58990;SDS011;44781;53.444;14.476;2023-12-04T12:26:54;41.10;;;25.60;;
58990;SDS011;44781;53.444;14.476;2023-12-04T12:29:22;41.00;;;25.30;;
58990;SDS011;44781;53.444;14.476;2023-12-04T12:31:50;35.90;;;21.90;;
58990;SDS011;44781;53.444;14.476;2023-12-04T12:34:17;40.60;;;23.60;;
58990;SDS011;44781;53.444;14.476;2023-12-04T12:36:44;38.30;;;23.10;;
58990;SDS011;44781;53.444;14.476;2023-12-04T12:39:11;42.20;;;24.40;;
58990;SDS011;44781;53.444;14.476;2023-12-04T12:41:39;42.70;;;25.80;;
58990;SDS011;44781;53.444;14.476;2023-12-04T12:44:06;39.90;;;24.40;;
58990;SDS011;44781;53.444;14.476;2023-12-04T12:46:33;44.10;;;27.30;;
58990;SDS011;44781;53.444;14.476;2023-12-04T12:49:00;42.20;;;25.40;;
58990;SDS011;44781;53.444;14.476;2023-12-04T12:51:27;49.60;;;27.90;;
58990;SDS011;44781;53.444;14.476;2023-12-04T12:53:56;37.80;;;23.80;;
58990;SDS011;44781;53.444;14.476;2023-12-04T12:56:24;38.90;;;23.40;;
58990;SDS011;44781;53.444;14.476;2023-12-04T12:58:52;36.60;;;22.30;;
58990;SDS011;44781;53.444;14.476;2023-12-04T13:01:22;36.90;;;22.20;;
58990;SDS011;44781;53.444;14.476;2023-12-04T13:03:51;45.70;;;25.20;;
58990;SDS011;44781;53.444;14.476;2023-12-04T13:06:18;41.90;;;25.20;;
58990;SDS011;44781;53.444;14.476;2023-12-04T13:08:45;41.10;;;24.30;;
58990;SDS011;44781;53.444;14.476;2023-12-04T13:11:12;41.80;;;23.50;;
58990;SDS011;44781;53.444;14.476;2023-12-04T13:13:39;40.80;;;23.10;;
58990;SDS011;44781;53.444;14.476;2023-12-04T13:16:06;51.30;;;27.70;;
58990;SDS011;44781;53.444;14.476;2023-12-04T13:18:34;52.10;;;27.80;;
58990;SDS011;44781;53.444;14.476;2023-12-04T13:21:02;44.70;;;25.80;;
58990;SDS011;44781;53.444;14.476;2023-12-04T13:23:29;53.00;;;28.40;;
58990;SDS011;44781;53.444;14.476;2023-12-04T13:25:56;55.00;;;27.60;;
58990;SDS011;44781;53.444;14.476;2023-12-04T13:28:23;59.60;;;31.90;;
58990;SDS011;44781;53.444;14.476;2023-12-04T13:30:50;49.80;;;26.10;;
58990;SDS011;44781;53.444;14.476;2023-12-04T13:33:17;45.20;;;25.60;;
58990;SDS011;44781;53.444;14.476;2023-12-04T13:35:47;40.80;;;22.60;;
58990;SDS011;44781;53.444;14.476;2023-12-04T13:38:14;30.50;;;18.10;;
58990;SDS011;44781;53.444;14.476;2023-12-04T13:40:41;28.30;;;17.40;;
58990;SDS011;44781;53.444;14.476;2023-12-04T13:43:15;30.30;;;17.00;;
58990;SDS011;44781;53.444;14.476;2023-12-04T13:46:01;27.30;;;16.40;;
58990;SDS011;44781;53.444;14.476;2023-12-04T13:48:36;24.70;;;14.80;;
58990;SDS011;44781;53.444;14.476;2023-12-04T13:51:10;28.60;;;15.80;;
58990;SDS011;44781;53.444;14.476;2023-12-04T13:53:38;30.20;;;17.00;;
58990;SDS011;44781;53.444;14.476;2023-12-04T13:56:11;30.90;;;18.70;;
58990;SDS011;44781;53.444;14.476;2023-12-04T13:58:38;28.90;;;16.20;;
58990;SDS011;44781;53.444;14.476;2023-12-04T14:01:10;28.90;;;16.50;;
58990;SDS011;44781;53.444;14.476;2023-12-04T14:03:41;24.90;;;15.30;;
58990;SDS011;44781;53.444;14.476;2023-12-04T14:06:10;27.50;;;18.70;;
58990;SDS011;44781;53.444;14.476;2023-12-04T14:08:37;24.20;;;15.00;;
58990;SDS011;44781;53.444;14.476;2023-12-04T14:11:05;24.40;;;14.50;;
58990;SDS011;44781;53.444;14.476;2023-12-04T14:13:33;24.30;;;14.60;;
58990;SDS011;44781;53.444;14.476;2023-12-04T14:16:01;27.30;;;17.50;;
58990;SDS011;44781;53.444;14.476;2023-12-04T14:18:29;25.00;;;14.90;;
58990;SDS011;44781;53.444;14.476;2023-12-04T14:20:59;23.20;;;14.30;;
58990;SDS011;44781;53.444;14.476;2023-12-04T14:23:29;24.50;;;15.40;;